createdAt,value
2022-11-03T00:01:48.196Z,10.83
2022-11-03T00:04:17.541Z,10.79
2022-11-03T00:06:47.553Z,10.78
2022-11-03T00:09:16.984Z,10.77
2022-11-03T00:11:46.168Z,10.77
2022-11-03T00:14:14.621Z,10.74
2022-11-03T00:16:42.496Z,10.72
2022-11-03T00:19:11.445Z,10.69
2022-11-03T00:21:39.517Z,10.66
2022-11-03T00:24:07.425Z,10.66
2022-11-03T00:26:36.572Z,10.58
2022-11-03T00:29:11.265Z,10.62
2022-11-03T00:31:40.936Z,10.59
2022-11-03T00:34:09.063Z,10.61
2022-11-03T00:36:42.066Z,10.61
2022-11-03T00:39:10.252Z,10.58
2022-11-03T00:41:38.281Z,10.60
2022-11-03T00:44:06.012Z,10.53
2022-11-03T00:46:35.394Z,10.59
2022-11-03T00:49:04.291Z,10.54
2022-11-03T00:51:31.795Z,10.56
2022-11-03T00:54:01.604Z,10.56
2022-11-03T00:56:30.318Z,10.51
2022-11-03T00:59:00.162Z,10.57
2022-11-03T01:01:31.588Z,10.57
2022-11-03T01:04:04.042Z,9.65
2022-11-03T01:06:51.215Z,10.54
2022-11-03T01:09:39.672Z,10.53
2022-11-03T01:12:15.689Z,10.55
2022-11-03T01:14:54.471Z,10.54
2022-11-03T01:17:25.103Z,10.52
2022-11-03T01:19:52.931Z,10.52
2022-11-03T01:22:21.512Z,10.52
2022-11-03T01:24:49.173Z,10.49
2022-11-03T01:27:18.794Z,10.49
2022-11-03T01:29:46.779Z,10.52
2022-11-03T01:32:14.608Z,10.46
2022-11-03T01:34:42.107Z,10.45
2022-11-03T01:37:09.617Z,10.44
2022-11-03T01:39:37.102Z,10.48
2022-11-03T01:42:04.737Z,10.46
2022-11-03T01:44:47.334Z,10.44
2022-11-03T01:47:26.053Z,10.43
2022-11-03T01:50:03.445Z,10.39
2022-11-03T01:52:53.082Z,10.40
2022-11-03T01:55:25.456Z,10.40
2022-11-03T01:57:52.777Z,10.37
2022-11-03T02:00:20.358Z,10.37
2022-11-03T02:02:47.997Z,10.37
2022-11-03T02:05:17.658Z,10.40
2022-11-03T02:07:57.957Z,10.39
2022-11-03T02:10:26.424Z,10.39
2022-11-03T02:12:54.271Z,10.44
2022-11-03T02:15:23.044Z,10.46
2022-11-03T02:17:53.437Z,10.47
2022-11-03T02:20:27.152Z,10.49
2022-11-03T02:23:29.879Z,10.51
2022-11-03T02:26:01.416Z,10.52
2022-11-03T02:28:34.224Z,10.58
2022-11-03T02:31:20.289Z,10.58
2022-11-03T02:34:14.535Z,10.64
2022-11-03T02:36:49.784Z,10.64
2022-11-03T02:39:29.926Z,10.65
2022-11-03T02:42:01.075Z,10.64
2022-11-03T02:44:29.551Z,10.66
2022-11-03T02:47:01.625Z,10.67
2022-11-03T02:49:29.163Z,10.65
2022-11-03T02:52:01.385Z,10.66
2022-11-03T02:54:44.085Z,10.65
2022-11-03T02:57:22.385Z,10.58
2022-11-03T03:00:01.085Z,10.64
2022-11-03T03:02:40.545Z,10.66
2022-11-03T03:05:10.589Z,10.66
2022-11-03T03:07:41.734Z,10.67
2022-11-03T03:10:13.451Z,10.67
2022-11-03T03:13:04.556Z,10.69
2022-11-03T03:16:02.993Z,10.76
2022-11-03T03:18:43.218Z,10.78
2022-11-03T03:21:20.113Z,10.79
2022-11-03T03:23:55.903Z,10.83
2022-11-03T03:26:31.853Z,10.87
2022-11-03T03:29:12.520Z,10.88
2022-11-03T03:31:44.038Z,10.90
2022-11-03T03:34:38.212Z,10.93
2022-11-03T03:37:01.961Z,10.94
2022-11-03T03:39:34.300Z,10.98
2022-11-03T03:42:03.016Z,10.98
2022-11-03T03:44:32.077Z,10.95
2022-11-03T03:47:06.858Z,10.96
2022-11-03T03:49:34.297Z,10.98
2022-11-03T03:52:03.712Z,10.97
2022-11-03T03:54:31.197Z,11.01
2022-11-03T03:57:12.547Z,11.01
2022-11-03T03:59:39.969Z,11.01
2022-11-03T04:02:07.592Z,10.98
2022-11-03T04:04:35.097Z,11.04
2022-11-03T04:07:20.032Z,11.03
2022-11-03T04:09:47.459Z,11.04
2022-11-03T04:12:47.435Z,11.05
2022-11-03T04:15:32.658Z,11.03
2022-11-03T04:18:17.520Z,11.00
2022-11-03T04:21:02.888Z,11.01
2022-11-03T04:23:30.349Z,10.98
2022-11-03T04:25:58.368Z,10.98
2022-11-03T04:28:27.197Z,10.97
2022-11-03T04:30:58.982Z,10.96
2022-11-03T04:33:27.546Z,10.96
2022-11-03T04:35:58.793Z,10.90
2022-11-03T04:38:28.843Z,10.97
2022-11-03T04:40:58.325Z,10.95
2022-11-03T04:43:34.922Z,10.96
2022-11-03T04:46:03.258Z,10.93
2022-11-03T04:48:31.020Z,10.93
2022-11-03T04:51:03.201Z,10.96
2022-11-03T04:53:33.948Z,10.98
2022-11-03T04:56:06.142Z,10.99
2022-11-03T04:58:36.817Z,10.98
2022-11-03T05:01:05.184Z,11.01
2022-11-03T05:03:38.530Z,11.02
2022-11-03T05:06:13.111Z,11.07
2022-11-03T05:08:41.102Z,11.09
2022-11-03T05:11:25.359Z,11.14
2022-11-03T05:13:53.779Z,11.15
2022-11-03T05:16:21.566Z,11.15
2022-11-03T05:18:51.078Z,11.21
2022-11-03T05:21:23.708Z,11.22
2022-11-03T05:23:55.807Z,11.23
2022-11-03T05:26:27.647Z,11.29
2022-11-03T05:28:59.790Z,11.30
2022-11-03T05:31:29.891Z,11.29
2022-11-03T05:33:59.995Z,11.31
2022-11-03T05:36:30.836Z,11.29
2022-11-03T05:39:32.340Z,11.30
2022-11-03T05:42:01.404Z,11.29
2022-11-03T05:44:36.732Z,11.30
2022-11-03T05:47:13.393Z,11.32
2022-11-03T05:49:41.142Z,11.38
2022-11-03T05:52:17.764Z,11.38
2022-11-03T05:54:45.262Z,11.36
2022-11-03T05:57:15.798Z,11.36
2022-11-03T05:59:46.288Z,11.39
2022-11-03T06:02:40.325Z,11.39
2022-11-03T06:05:22.163Z,11.42
2022-11-03T06:07:56.364Z,11.40
2022-11-03T06:10:36.944Z,11.42
2022-11-03T06:13:17.371Z,11.44
2022-11-03T06:15:47.928Z,11.46
2022-11-03T06:18:24.321Z,11.45
2022-11-03T06:21:03.316Z,11.47
2022-11-03T06:23:30.859Z,11.48
2022-11-03T06:25:59.234Z,11.47
2022-11-03T06:28:33.016Z,11.45
2022-11-03T06:31:00.762Z,11.46
2022-11-03T06:33:30.827Z,11.46
2022-11-03T06:36:04.682Z,11.43
2022-11-03T06:38:34.743Z,11.47
2022-11-03T06:41:02.284Z,11.51
2022-11-03T06:43:42.579Z,11.42
2022-11-03T06:46:19.537Z,11.48
2022-11-03T06:48:47.358Z,11.49
2022-11-03T06:51:21.899Z,11.53
2022-11-03T06:53:51.315Z,11.54
2022-11-03T06:56:25.436Z,11.49
2022-11-03T06:58:55.436Z,11.63
2022-11-03T07:01:26.980Z,11.64
2022-11-03T07:04:01.213Z,11.70
2022-11-03T07:06:35.620Z,11.71
2022-11-03T07:09:06.577Z,11.74
2022-11-03T07:11:46.556Z,11.78
2022-11-03T07:14:20.612Z,11.76
2022-11-03T07:16:51.739Z,11.83
2022-11-03T07:19:24.792Z,11.84
2022-11-03T07:22:01.904Z,11.83
2022-11-03T07:24:37.462Z,11.86
2022-11-03T07:27:23.380Z,11.83
2022-11-03T07:29:52.910Z,11.88
2022-11-03T07:32:23.463Z,11.88
2022-11-03T07:34:53.994Z,11.90
2022-11-03T07:37:25.195Z,11.91
2022-11-03T07:39:53.827Z,11.94
2022-11-03T07:42:23.690Z,11.98
2022-11-03T07:44:52.586Z,12.01
2022-11-03T07:47:23.035Z,12.03
2022-11-03T07:49:50.533Z,12.01
2022-11-03T07:52:21.996Z,12.05
2022-11-03T07:54:51.695Z,12.07
2022-11-03T07:57:25.990Z,12.13
2022-11-03T07:59:57.460Z,12.15
2022-11-03T08:02:32.825Z,12.18
2022-11-03T08:05:01.136Z,12.19
2022-11-03T08:07:29.114Z,12.25
2022-11-03T08:09:57.320Z,12.27
2022-11-03T08:12:24.891Z,12.34
2022-11-03T08:14:52.426Z,12.38
2022-11-03T08:17:19.948Z,12.37
2022-11-03T08:19:47.550Z,12.39
2022-11-03T08:22:14.993Z,12.52
2022-11-03T08:24:42.493Z,12.56
2022-11-03T08:27:09.929Z,12.51
2022-11-03T08:29:37.494Z,12.55
2022-11-03T08:32:05.208Z,12.57
2022-11-03T08:34:32.687Z,12.61
2022-11-03T08:37:00.172Z,12.64
2022-11-03T08:39:27.827Z,12.61
2022-11-03T08:41:55.244Z,12.63
2022-11-03T08:44:22.687Z,12.73
2022-11-03T08:46:50.129Z,12.78
2022-11-03T08:49:17.574Z,12.82
2022-11-03T08:51:45.294Z,12.91
2022-11-03T08:54:12.781Z,12.90
2022-11-03T08:56:40.278Z,12.87
2022-11-03T08:59:07.785Z,12.96
2022-11-03T09:01:35.279Z,12.97
2022-11-03T09:04:03.378Z,13.06
2022-11-03T09:06:31.031Z,12.97
2022-11-03T09:11:46.362Z,13.08
2022-11-03T09:14:14.004Z,13.15
2022-11-03T09:16:41.518Z,13.22
2022-11-03T09:19:09.057Z,13.19
2022-11-03T09:21:36.659Z,13.27
2022-11-03T09:24:04.375Z,13.26
2022-11-03T09:26:31.824Z,13.30
2022-11-03T09:28:59.324Z,13.34
2022-11-03T09:31:28.466Z,13.34
2022-11-03T09:33:56.278Z,13.48
2022-11-03T09:36:23.732Z,13.42
2022-11-03T09:38:51.212Z,13.53
2022-11-03T09:41:26.603Z,13.50
2022-11-03T09:44:03.389Z,13.49
2022-11-03T09:46:31.603Z,13.61
2022-11-03T09:48:59.841Z,13.60
2022-11-03T09:51:28.652Z,13.57
2022-11-03T09:54:03.432Z,13.51
2022-11-03T09:56:32.174Z,13.53
2022-11-03T09:59:00.910Z,13.43
2022-11-03T10:01:28.814Z,13.63
2022-11-03T10:04:00.886Z,13.63
2022-11-03T10:06:28.328Z,13.53
2022-11-03T10:08:55.990Z,13.62
2022-11-03T10:11:23.515Z,13.59
2022-11-03T10:13:56.476Z,13.64
2022-11-03T10:16:27.247Z,13.67
2022-11-03T10:18:55.181Z,13.72
2022-11-03T10:21:34.126Z,13.61
2022-11-03T10:24:01.739Z,13.65
2022-11-03T10:26:35.216Z,13.70
2022-11-03T10:29:05.962Z,13.71
2022-11-03T10:31:36.576Z,13.80
2022-11-03T10:34:05.555Z,13.80
2022-11-03T10:36:35.011Z,13.79
2022-11-03T10:39:30.584Z,13.88
2022-11-03T10:41:59.705Z,13.87
2022-11-03T10:44:29.388Z,13.94
2022-11-03T10:46:58.464Z,13.96
2022-11-03T10:49:26.015Z,13.95
2022-11-03T10:51:55.665Z,13.98
2022-11-03T10:54:24.988Z,14.09
2022-11-03T10:56:53.469Z,14.02
2022-11-03T10:59:25.263Z,14.07
2022-11-03T11:01:53.106Z,14.10
2022-11-03T11:04:21.987Z,14.12
2022-11-03T11:06:49.682Z,14.20
2022-11-03T11:09:25.467Z,14.18
2022-11-03T11:12:15.958Z,14.26
2022-11-03T11:15:31.602Z,14.35
2022-11-03T11:17:59.118Z,14.18
2022-11-03T11:20:31.113Z,14.37
2022-11-03T11:23:30.337Z,14.32
2022-11-03T11:26:09.882Z,14.38
2022-11-03T11:28:40.313Z,14.33
2022-11-03T11:31:33.820Z,14.49
2022-11-03T11:34:10.396Z,14.53
2022-11-03T11:36:39.769Z,14.62
2022-11-03T11:39:25.345Z,14.68
2022-11-03T11:42:18.676Z,14.52
2022-11-03T11:44:46.191Z,14.57
2022-11-03T11:47:25.992Z,14.65
2022-11-03T11:50:02.586Z,14.62
2022-11-03T11:52:31.273Z,14.69
2022-11-03T11:54:58.922Z,15.04
2022-11-03T11:57:35.348Z,15.34
2022-11-03T12:00:03.568Z,15.38
2022-11-03T12:02:31.791Z,15.52
2022-11-03T12:05:01.261Z,15.50
2022-11-03T12:07:36.678Z,15.36
2022-11-03T12:10:15.706Z,15.41
2022-11-03T12:12:43.289Z,15.47
2022-11-03T12:15:48.532Z,15.61
2022-11-03T12:18:50.177Z,15.62
2022-11-03T12:22:03.026Z,15.88
2022-11-03T12:24:33.596Z,15.86
2022-11-03T12:27:01.987Z,15.67
2022-11-03T12:29:29.455Z,15.62
2022-11-03T12:31:56.986Z,15.48
2022-11-03T12:34:24.548Z,15.40
2022-11-03T12:36:56.165Z,15.33
2022-11-03T12:39:23.931Z,15.25
2022-11-03T12:41:51.446Z,15.23
2022-11-03T12:44:18.942Z,15.15
2022-11-03T12:46:47.029Z,15.02
2022-11-03T12:49:14.474Z,15.16
2022-11-03T12:51:41.932Z,15.34
2022-11-03T12:54:09.404Z,15.52
2022-11-03T12:56:36.884Z,15.43
2022-11-03T12:59:04.327Z,15.66
2022-11-03T13:01:33.330Z,15.98
2022-11-03T13:04:01.385Z,16.27
2022-11-03T13:06:28.847Z,16.18
2022-11-03T13:08:56.369Z,16.08
2022-11-03T13:11:41.543Z,16.35
2022-11-03T13:14:09.035Z,16.76
2022-11-03T13:16:36.748Z,16.62
2022-11-03T13:19:04.240Z,16.36
2022-11-03T13:21:31.990Z,16.34
2022-11-03T13:23:59.600Z,16.31
2022-11-03T13:26:27.181Z,16.20
2022-11-03T13:28:54.690Z,16.05
2022-11-03T13:31:22.199Z,15.87
2022-11-03T13:33:50.848Z,15.67
2022-11-03T13:36:18.396Z,15.82
2022-11-03T13:38:46.022Z,15.72
2022-11-03T13:41:13.664Z,15.56
2022-11-03T13:43:41.153Z,15.48
2022-11-03T13:46:08.667Z,15.45
2022-11-03T13:51:23.807Z,15.32
2022-11-03T13:59:27.047Z,15.22
2022-11-03T14:04:44.207Z,15.14
2022-11-03T14:07:12.238Z,15.13
2022-11-03T14:09:39.823Z,15.00
2022-11-03T14:12:25.382Z,15.01
2022-11-03T14:14:52.944Z,15.00
2022-11-03T14:17:20.516Z,14.91
2022-11-03T14:19:52.463Z,14.92
2022-11-03T14:22:24.749Z,14.81
2022-11-03T14:24:52.956Z,14.79
2022-11-03T14:27:21.014Z,14.87
2022-11-03T14:29:50.279Z,14.84
2022-11-03T14:32:19.630Z,14.83
2022-11-03T14:34:47.980Z,14.75
2022-11-03T14:37:16.386Z,14.69
2022-11-03T14:39:44.132Z,14.53
2022-11-03T14:42:15.518Z,14.65
2022-11-03T14:44:45.275Z,14.61
2022-11-03T14:47:21.542Z,14.55
2022-11-03T14:49:49.666Z,14.52
2022-11-03T14:52:18.620Z,14.46
2022-11-03T14:54:46.165Z,14.25
2022-11-03T14:57:13.633Z,14.33
2022-11-03T14:59:41.796Z,14.31
2022-11-03T15:02:09.432Z,14.27
2022-11-03T15:04:37.146Z,14.18
2022-11-03T15:07:04.664Z,14.09
2022-11-03T15:09:32.172Z,14.16
2022-11-03T15:11:59.673Z,14.03
2022-11-03T15:14:27.144Z,13.96
2022-11-03T15:16:54.588Z,13.96
2022-11-03T15:19:22.082Z,13.89
2022-11-03T15:21:49.548Z,13.84
2022-11-03T15:27:04.541Z,13.74
2022-11-03T15:29:32.064Z,13.71
2022-11-03T15:31:59.642Z,13.64
2022-11-03T15:34:27.120Z,13.57
2022-11-03T15:36:54.650Z,13.49
2022-11-03T15:39:22.177Z,13.47
2022-11-03T15:41:49.684Z,13.44
2022-11-03T15:44:17.240Z,13.44
2022-11-03T15:46:44.739Z,13.36
2022-11-03T15:49:12.285Z,13.27
2022-11-03T15:51:39.938Z,13.27
2022-11-03T15:54:08.218Z,13.21
2022-11-03T15:56:35.698Z,13.13
2022-11-03T15:59:03.275Z,13.06
2022-11-03T16:01:30.879Z,13.04
2022-11-03T16:03:58.525Z,12.87
2022-11-03T16:06:46.709Z,12.83
2022-11-03T16:09:13.653Z,12.82
2022-11-03T16:11:41.175Z,12.71
2022-11-03T16:14:08.691Z,12.69
2022-11-03T16:16:36.264Z,12.55
2022-11-03T16:19:03.777Z,12.52
2022-11-03T16:21:31.231Z,12.42
2022-11-03T16:23:58.794Z,12.44
2022-11-03T16:26:26.261Z,12.29
2022-11-03T16:28:53.782Z,12.21
2022-11-03T16:31:21.321Z,12.26
2022-11-03T16:33:49.159Z,12.19
2022-11-03T16:36:16.620Z,12.20
2022-11-03T16:38:44.166Z,12.18
2022-11-03T16:41:11.721Z,12.21
2022-11-03T16:43:39.586Z,12.19
2022-11-03T16:46:07.211Z,12.17
2022-11-03T16:48:34.918Z,12.19
2022-11-03T16:51:02.425Z,12.29
2022-11-03T16:53:29.928Z,12.18
2022-11-03T16:55:57.417Z,12.17
2022-11-03T16:58:25.481Z,11.98
2022-11-03T17:00:53.037Z,12.01
2022-11-03T17:03:20.658Z,11.98
2022-11-03T17:05:48.183Z,11.94
2022-11-03T17:08:46.301Z,11.85
2022-11-03T17:11:03.134Z,11.81
2022-11-03T17:13:30.639Z,11.76
2022-11-03T17:15:58.232Z,11.73
2022-11-03T17:18:25.709Z,11.62
2022-11-03T17:20:53.181Z,11.62
2022-11-03T17:23:20.670Z,11.56
2022-11-03T17:25:48.537Z,11.58
2022-11-03T17:28:18.746Z,11.57
2022-11-03T17:30:46.485Z,11.51
2022-11-03T17:33:18.130Z,11.47
2022-11-03T17:35:47.176Z,11.45
2022-11-03T17:38:18.761Z,11.38
2022-11-03T17:40:48.272Z,11.38
2022-11-03T17:43:24.943Z,11.40
2022-11-03T17:45:52.684Z,11.35
2022-11-03T17:48:22.582Z,11.33
2022-11-03T17:50:53.392Z,11.27
2022-11-03T17:53:26.851Z,11.32
2022-11-03T17:56:27.822Z,11.24
2022-11-03T17:58:46.581Z,11.24
2022-11-03T18:01:22.931Z,11.17
2022-11-03T18:03:50.513Z,11.21
2022-11-03T18:06:20.231Z,11.21
2022-11-03T18:08:48.985Z,11.22
2022-11-03T18:11:42.627Z,11.15
2022-11-03T18:14:10.264Z,11.18
2022-11-03T18:16:38.080Z,11.14
2022-11-03T18:19:05.603Z,11.16
2022-11-03T18:21:33.104Z,11.18
2022-11-03T18:24:00.640Z,11.18
2022-11-03T18:26:28.486Z,11.16
2022-11-03T18:28:56.012Z,11.17
2022-11-03T18:31:33.798Z,11.12
2022-11-03T18:34:05.704Z,11.13
2022-11-03T18:36:34.334Z,11.08
2022-11-03T18:39:02.587Z,11.10
2022-11-03T18:41:39.294Z,11.10
2022-11-03T18:44:28.179Z,11.12
2022-11-03T18:46:56.377Z,11.13
2022-11-03T18:49:27.810Z,11.14
2022-11-03T18:52:03.044Z,11.13
2022-11-03T18:54:33.821Z,11.07
2022-11-03T18:57:02.162Z,11.12
2022-11-03T18:59:33.126Z,11.08
2022-11-03T19:02:00.919Z,11.08
2022-11-03T19:04:28.528Z,11.13
2022-11-03T19:06:56.094Z,11.10
2022-11-03T19:09:26.735Z,11.13
2022-11-03T19:11:58.266Z,11.09
2022-11-03T19:14:38.139Z,11.15
2022-11-03T19:17:22.382Z,11.10
2022-11-03T19:19:51.187Z,11.08
2022-11-03T19:22:21.060Z,11.08
2022-11-03T19:24:48.913Z,11.06
2022-11-03T19:27:21.308Z,11.06
2022-11-03T19:29:49.648Z,10.98
2022-11-03T19:32:27.269Z,11.01
2022-11-03T19:35:07.877Z,10.92
2022-11-03T19:37:36.423Z,10.89
2022-11-03T19:40:08.781Z,10.94
2022-11-03T19:42:36.776Z,10.91
2022-11-03T19:45:12.445Z,10.93
2022-11-03T19:47:57.607Z,10.90
2022-11-03T19:50:33.239Z,10.94
2022-11-03T19:53:03.872Z,10.97
2022-11-03T19:55:35.046Z,10.98
2022-11-03T19:58:15.304Z,10.97
2022-11-03T20:00:43.758Z,11.02
2022-11-03T20:03:11.728Z,11.01
2022-11-03T20:05:42.872Z,11.02
2022-11-03T20:08:19.696Z,11.06
2022-11-03T20:10:47.950Z,11.08
2022-11-03T20:13:17.539Z,11.04
2022-11-03T20:15:45.083Z,11.04
2022-11-03T20:18:13.710Z,11.03
2022-11-03T20:20:43.173Z,11.11
2022-11-03T20:23:22.125Z,11.09
2022-11-03T20:25:50.060Z,11.08
2022-11-03T20:28:21.256Z,11.14
2022-11-03T20:30:49.614Z,11.12
2022-11-03T20:33:19.287Z,11.14
2022-11-03T20:35:47.965Z,11.13
2022-11-03T20:38:18.915Z,11.09
2022-11-03T20:40:47.892Z,11.08
2022-11-03T20:43:31.505Z,11.09
2022-11-03T20:45:59.137Z,11.09
2022-11-03T20:48:26.777Z,11.12
2022-11-03T20:50:55.560Z,11.02
2022-11-03T20:53:25.172Z,11.08
2022-11-03T20:55:53.859Z,11.08
2022-11-03T20:58:21.734Z,11.08
2022-11-03T21:00:50.104Z,11.06
2022-11-03T21:03:37.557Z,11.11
2022-11-03T21:06:16.493Z,11.06
2022-11-03T21:08:45.512Z,11.04
2022-11-03T21:11:27.346Z,11.02
2022-11-03T21:13:58.712Z,11.01
2022-11-03T21:16:45.001Z,11.02
2022-11-03T21:19:33.895Z,11.00
2022-11-03T21:22:01.767Z,10.94
2022-11-03T21:24:29.382Z,10.94
2022-11-03T21:26:57.568Z,10.91
2022-11-03T21:29:53.501Z,10.89
2022-11-03T21:32:15.447Z,10.88
2022-11-03T21:34:43.924Z,10.84
2022-11-03T21:37:15.756Z,10.80
2022-11-03T21:39:44.564Z,10.77
2022-11-03T21:42:31.231Z,10.71
2022-11-03T21:44:59.272Z,10.69
2022-11-03T21:47:26.965Z,10.69
2022-11-03T21:49:53.455Z,10.68
2022-11-03T21:52:31.834Z,10.64
2022-11-03T21:55:00.371Z,10.65
2022-11-03T21:57:28.413Z,10.67
2022-11-03T21:59:58.611Z,10.66
2022-11-03T22:02:29.755Z,10.67
2022-11-03T22:04:57.300Z,10.69
2022-11-03T22:07:25.038Z,10.66
2022-11-03T22:09:52.485Z,10.65
2022-11-03T22:12:19.916Z,10.64
2022-11-03T22:15:04.929Z,10.61
2022-11-03T22:17:32.480Z,10.60
2022-11-03T22:20:17.376Z,10.62
2022-11-03T22:23:02.625Z,10.57
2022-11-03T22:25:47.449Z,10.54
2022-11-03T22:28:15.399Z,10.52
2022-11-03T22:31:00.572Z,10.54
2022-11-03T22:33:29.365Z,10.54
2022-11-03T22:36:20.253Z,10.53
2022-11-03T22:39:06.862Z,10.46
2022-11-03T22:41:51.548Z,10.44
2022-11-03T22:44:36.408Z,10.44
2022-11-03T22:47:05.644Z,10.44
2022-11-03T22:49:35.385Z,10.41
2022-11-03T22:52:02.973Z,10.36
2022-11-03T22:54:29.513Z,10.39
2022-11-03T22:56:56.969Z,10.35
2022-11-03T22:59:24.413Z,10.39
2022-11-03T23:01:52.260Z,10.40
2022-11-03T23:04:19.780Z,10.40
2022-11-03T23:06:47.224Z,10.43
2022-11-03T23:09:14.727Z,10.43
2022-11-03T23:11:42.260Z,10.43
2022-11-03T23:14:11.941Z,10.44
2022-11-03T23:16:41.924Z,10.42
2022-11-03T23:19:30.228Z,10.43
2022-11-03T23:21:57.734Z,10.38
2022-11-03T23:24:45.312Z,10.40
2022-11-03T23:27:14.261Z,10.38
2022-11-03T23:29:41.834Z,10.38
2022-11-03T23:32:09.582Z,10.34
2022-11-03T23:34:36.998Z,10.36
2022-11-03T23:37:04.743Z,10.36
2022-11-03T23:39:32.194Z,10.36
2022-11-03T23:41:59.645Z,10.35
2022-11-03T23:44:47.071Z,10.38
2022-11-03T23:47:31.713Z,10.37
2022-11-03T23:49:59.221Z,10.32
2022-11-03T23:52:26.676Z,10.30
2022-11-03T23:54:54.092Z,10.28
2022-11-03T23:57:39.014Z,10.26
